Time;durP1;ratioP1;P1;durP2;ratioP2;P2;SDS_P1;SDS_P2;PMS_P1;PMS_P2;Temp;Humidity;BMP_temperature;BMP_pressure;BME280_temperature;BME280_humidity;BME280_pressure;Samples;Min_cycle;Max_cycle;Signal;HPM_P1;HPM_P2
2022/08/14 00:00:36;;;;;;;;;3.33;3.33;;;;;;;;5095795;27;45426;-72
2022/08/14 00:03:01;;;;;;;;;3.00;3.00;;;;;;;;5085311;27;45438;-72
2022/08/14 00:05:27;;;;;;;;;3.33;3.33;;;;;;;;5078449;27;45697;-72
2022/08/14 00:07:52;;;;;;;;;3.00;3.00;;;;;;;;5096319;27;46255;-73
2022/08/14 00:10:19;;;;;;;;;3.00;3.00;;;;;;;;5070715;27;45896;-73
2022/08/14 00:12:45;;;;;;;;;4.00;4.00;;;;;;;;5096299;27;45366;-73
2022/08/14 00:15:17;;;;;;;;;3.00;3.00;;;;;;;;5096057;27;45427;-72
2022/08/14 00:17:43;;;;;;;;;2.00;2.00;;;;;;;;5093737;27;46201;-72
2022/08/14 00:20:09;;;;;;;;;2.67;2.67;;;;;;;;5075544;28;45296;-72
2022/08/14 00:22:34;;;;;;;;;4.33;4.00;;;;;;;;5075493;27;45256;-72
2022/08/14 00:24:59;;;;;;;;;4.00;4.00;;;;;;;;5095348;27;45438;-72
2022/08/14 00:27:24;;;;;;;;;2.67;2.67;;;;;;;;5096078;27;45981;-72
2022/08/14 00:29:49;;;;;;;;;4.33;4.00;;;;;;;;5095818;27;45318;-72
2022/08/14 00:32:15;;;;;;;;;1.00;1.00;;;;;;;;5096090;27;45475;-72
2022/08/14 00:34:40;;;;;;;;;3.00;3.00;;;;;;;;5088254;27;45363;-72
2022/08/14 00:37:05;;;;;;;;;3.00;3.00;;;;;;;;5079412;27;46086;-72
2022/08/14 00:39:31;;;;;;;;;2.00;2.00;;;;;;;;5087996;27;45222;-72
2022/08/14 00:41:56;;;;;;;;;3.00;3.00;;;;;;;;5095644;27;45806;-72
2022/08/14 00:44:21;;;;;;;;;3.33;3.33;;;;;;;;5091770;27;45392;-72
2022/08/14 00:46:48;;;;;;;;;4.67;3.33;;;;;;;;5092688;27;46116;-72
2022/08/14 00:49:14;;;;;;;;;3.00;3.00;;;;;;;;5086646;27;45386;-72
2022/08/14 00:51:40;;;;;;;;;2.00;2.00;;;;;;;;5090690;27;45412;-72
2022/08/14 00:54:06;;;;;;;;;3.33;3.33;;;;;;;;5095228;27;45414;-72
2022/08/14 00:56:31;;;;;;;;;4.00;3.00;;;;;;;;5085583;27;46303;-72
2022/08/14 00:58:58;;;;;;;;;3.67;3.67;;;;;;;;5085773;27;45553;-72
2022/08/14 01:01:24;;;;;;;;;3.00;3.00;;;;;;;;5078621;27;45364;-72
2022/08/14 01:03:51;;;;;;;;;3.00;3.00;;;;;;;;5085837;27;45513;-72
2022/08/14 01:06:16;;;;;;;;;3.00;3.00;;;;;;;;5088080;27;45438;-73
2022/08/14 01:08:43;;;;;;;;;4.00;4.00;;;;;;;;5083793;27;45500;-73
2022/08/14 01:11:08;;;;;;;;;3.00;3.00;;;;;;;;5085827;27;45345;-73
2022/08/14 01:13:35;;;;;;;;;2.67;2.67;;;;;;;;5092970;27;45374;-72
2022/08/14 01:16:02;;;;;;;;;3.67;3.00;;;;;;;;5094267;27;46367;-72
2022/08/14 01:21:14;;;;;;;;;3.00;3.00;;;;;;;;5099049;27;45282;-72
2022/08/14 01:23:50;;;;;;;;;2.67;2.67;;;;;;;;5098379;27;45400;-72
2022/08/14 01:26:19;;;;;;;;;2.00;2.00;;;;;;;;5098444;27;47049;-72
2022/08/14 01:28:45;;;;;;;;;3.00;3.00;;;;;;;;5098681;27;45364;-72
2022/08/14 01:31:12;;;;;;;;;3.00;3.00;;;;;;;;5097478;27;45415;-72
2022/08/14 01:33:40;;;;;;;;;3.00;2.00;;;;;;;;5091570;27;45371;-72
2022/08/14 01:36:06;;;;;;;;;3.00;3.00;;;;;;;;5088073;27;46216;-72
2022/08/14 01:38:35;;;;;;;;;3.33;3.33;;;;;;;;5083205;27;45737;-72
2022/08/14 01:41:01;;;;;;;;;1.67;1.67;;;;;;;;5096994;27;45347;-72
2022/08/14 01:43:29;;;;;;;;;2.33;2.33;;;;;;;;5097674;27;45558;-73
2022/08/14 01:45:56;;;;;;;;;2.33;2.33;;;;;;;;5095033;27;47211;-73
2022/08/14 01:48:22;;;;;;;;;2.33;2.33;;;;;;;;5075754;27;45375;-72
2022/08/14 01:50:48;;;;;;;;;4.00;4.00;;;;;;;;5098357;27;45367;-72
2022/08/14 01:53:14;;;;;;;;;2.33;2.33;;;;;;;;5098001;27;45370;-73
2022/08/14 01:55:39;;;;;;;;;1.33;1.33;;;;;;;;5098294;27;46144;-72
2022/08/14 01:58:04;;;;;;;;;2.67;1.67;;;;;;;;5098260;27;45323;-72
2022/08/14 02:00:30;;;;;;;;;4.00;4.00;;;;;;;;5098008;27;45300;-72
2022/08/14 02:02:56;;;;;;;;;2.33;2.33;;;;;;;;5097306;27;45363;-72
2022/08/14 02:05:28;;;;;;;;;3.67;3.67;;;;;;;;5084181;27;46584;-72
2022/08/14 02:07:54;;;;;;;;;1.67;1.67;;;;;;;;5087640;27;45403;-72
2022/08/14 02:10:20;;;;;;;;;2.00;2.00;;;;;;;;5088530;27;45415;-72
2022/08/14 02:12:45;;;;;;;;;4.00;4.00;;;;;;;;5095328;27;45663;-72
2022/08/14 02:15:11;;;;;;;;;2.00;2.00;;;;;;;;5096817;27;46237;-72
2022/08/14 02:17:37;;;;;;;;;3.33;2.00;;;;;;;;5097720;27;45482;-72
2022/08/14 02:20:03;;;;;;;;;2.33;2.33;;;;;;;;5098107;27;45413;-72
2022/08/14 02:22:28;;;;;;;;;2.33;2.33;;;;;;;;5097360;27;45489;-72
2022/08/14 02:24:53;;;;;;;;;3.33;2.00;;;;;;;;5097510;27;46264;-72
2022/08/14 02:27:19;;;;;;;;;1.33;1.33;;;;;;;;5090576;27;45629;-73
2022/08/14 02:29:45;;;;;;;;;2.00;2.00;;;;;;;;5091600;27;45289;-72
2022/08/14 02:32:10;;;;;;;;;3.00;3.00;;;;;;;;5086227;27;45423;-72
2022/08/14 02:34:37;;;;;;;;;2.33;2.33;;;;;;;;5097420;27;47131;-73
2022/08/14 02:37:08;;;;;;;;;4.67;3.00;;;;;;;;5085696;27;45502;-72
2022/08/14 02:39:36;;;;;;;;;3.00;3.00;;;;;;;;5096738;27;45403;-72
2022/08/14 02:42:01;;;;;;;;;2.33;2.33;;;;;;;;5097447;27;45617;-72
2022/08/14 02:44:26;;;;;;;;;2.33;2.33;;;;;;;;5097511;27;46175;-72
2022/08/14 02:46:56;;;;;;;;;2.33;2.33;;;;;;;;5097375;27;45278;-72
2022/08/14 02:49:25;;;;;;;;;2.00;2.00;;;;;;;;5097266;27;45493;-72
2022/08/14 02:51:51;;;;;;;;;2.67;2.67;;;;;;;;5097174;27;45348;-72
2022/08/14 02:54:16;;;;;;;;;1.67;1.67;;;;;;;;5096940;27;46300;-72
2022/08/14 02:56:41;;;;;;;;;3.00;3.00;;;;;;;;5097272;27;45983;-72
2022/08/14 02:59:08;;;;;;;;;2.00;2.00;;;;;;;;5091702;27;45369;-72
2022/08/14 03:01:33;;;;;;;;;2.67;2.67;;;;;;;;5097044;27;45524;-72
2022/08/14 03:03:59;;;;;;;;;2.75;2.75;;;;;;;;5095077;27;46030;-72
2022/08/14 03:06:24;;;;;;;;;2.00;2.00;;;;;;;;5087553;27;45448;-72
2022/08/14 03:08:50;;;;;;;;;3.00;3.00;;;;;;;;5082597;27;45293;-72
2022/08/14 03:11:15;;;;;;;;;2.67;2.67;;;;;;;;5090522;27;45352;-73
2022/08/14 03:13:42;;;;;;;;;4.00;4.00;;;;;;;;5088485;27;46852;-72
2022/08/14 03:16:09;;;;;;;;;1.33;1.33;;;;;;;;5083135;27;45487;-72
2022/08/14 03:18:36;;;;;;;;;2.00;2.00;;;;;;;;5085337;27;45348;-72
2022/08/14 03:21:04;;;;;;;;;3.33;3.33;;;;;;;;5096811;27;45314;-72
2022/08/14 03:23:34;;;;;;;;;2.00;2.00;;;;;;;;5095659;27;46023;-72
2022/08/14 03:25:59;;;;;;;;;5.00;2.33;;;;;;;;5096749;27;45466;-72
2022/08/14 03:28:25;;;;;;;;;3.00;3.00;;;;;;;;5088932;27;45399;-72
2022/08/14 03:30:51;;;;;;;;;2.00;1.67;;;;;;;;5086440;27;45290;-72
2022/08/14 03:33:16;;;;;;;;;4.00;4.00;;;;;;;;5093855;27;46225;-72
2022/08/14 03:35:42;;;;;;;;;1.00;1.00;;;;;;;;5089507;27;45393;-72
2022/08/14 03:38:08;;;;;;;;;3.00;3.00;;;;;;;;5089424;27;45279;-73
2022/08/14 03:40:36;;;;;;;;;2.00;2.00;;;;;;;;5095803;27;45512;-72
2022/08/14 03:43:04;;;;;;;;;3.33;3.33;;;;;;;;5090299;27;46348;-72
2022/08/14 03:45:29;;;;;;;;;3.00;2.33;;;;;;;;5096528;27;45290;-72
2022/08/14 03:47:54;;;;;;;;;3.00;3.00;;;;;;;;5096203;27;45268;-73
2022/08/14 03:50:20;;;;;;;;;2.67;2.67;;;;;;;;5096373;27;45493;-72
2022/08/14 03:52:45;;;;;;;;;2.67;2.67;;;;;;;;5096278;27;47099;-73
2022/08/14 03:55:11;;;;;;;;;2.00;2.00;;;;;;;;5096344;27;45289;-72
2022/08/14 03:57:37;;;;;;;;;3.00;3.00;;;;;;;;5088185;27;45291;-72
2022/08/14 04:00:09;;;;;;;;;1.67;1.67;;;;;;;;5090230;27;45425;-72
2022/08/14 04:02:35;;;;;;;;;2.33;2.33;;;;;;;;5095781;27;47179;-72
2022/08/14 04:05:00;;;;;;;;;2.33;2.33;;;;;;;;5084446;27;45424;-72
2022/08/14 04:07:25;;;;;;;;;3.33;3.00;;;;;;;;5095237;27;45406;-72
2022/08/14 04:09:51;;;;;;;;;2.00;2.00;;;;;;;;5092911;27;45465;-72
2022/08/14 04:12:18;;;;;;;;;2.67;2.67;;;;;;;;5092713;27;45431;-73
2022/08/14 04:14:43;;;;;;;;;3.00;3.00;;;;;;;;5086878;27;45367;-72
2022/08/14 04:17:10;;;;;;;;;2.00;2.00;;;;;;;;5090772;27;45371;-72
2022/08/14 04:19:35;;;;;;;;;3.00;2.67;;;;;;;;5095878;27;45725;-72
2022/08/14 04:22:00;;;;;;;;;3.00;3.00;;;;;;;;5095962;27;46140;-72
2022/08/14 04:24:25;;;;;;;;;3.00;3.00;;;;;;;;5090442;27;45325;-72
2022/08/14 04:26:50;;;;;;;;;3.33;3.33;;;;;;;;5096281;27;45348;-72
2022/08/14 04:29:16;;;;;;;;;3.00;2.00;;;;;;;;5096291;27;45332;-72
2022/08/14 04:31:41;;;;;;;;;2.33;2.33;;;;;;;;5083027;27;46145;-72
2022/08/14 04:34:07;;;;;;;;;2.33;2.33;;;;;;;;5097546;27;45402;-72
2022/08/14 04:43:34;;;;;;;;;3.00;3.00;;;;;;;;5087969;27;45346;-73
2022/08/14 04:44:45;;;;;;;;;3.00;3.00;;;;;;;;5088822;27;45360;-72
2022/08/14 04:50:02;;;;;;;;;3.00;3.00;;;;;;;;5035979;28;45433;-73
2022/08/14 04:52:27;;;;;;;;;2.00;2.00;;;;;;;;5035858;28;46092;-72
2022/08/14 04:54:52;;;;;;;;;2.00;2.00;;;;;;;;5031832;28;45448;-72
2022/08/14 04:57:17;;;;;;;;;2.00;2.00;;;;;;;;5031232;28;45400;-72
2022/08/14 04:59:43;;;;;;;;;2.33;2.33;;;;;;;;5027038;28;45418;-73
2022/08/14 05:02:08;;;;;;;;;2.67;1.67;;;;;;;;5018787;28;46611;-72
2022/08/14 05:04:33;;;;;;;;;2.33;2.33;;;;;;;;5035117;28;45349;-72
2022/08/14 05:06:58;;;;;;;;;2.33;2.33;;;;;;;;5031098;28;45435;-72
2022/08/14 05:09:24;;;;;;;;;1.67;1.67;;;;;;;;5036083;28;45373;-72
2022/08/14 05:11:49;;;;;;;;;4.00;4.00;;;;;;;;5018313;28;46059;-72
2022/08/14 05:14:15;;;;;;;;;3.00;3.00;;;;;;;;5034758;28;45477;-72
2022/08/14 05:16:40;;;;;;;;;4.67;2.00;;;;;;;;5035900;28;45533;-72
2022/08/14 05:19:07;;;;;;;;;3.00;3.00;;;;;;;;5036084;28;45641;-72
2022/08/14 05:21:33;;;;;;;;;1.33;1.33;;;;;;;;5035492;28;46261;-72
2022/08/14 05:23:58;;;;;;;;;3.00;3.00;;;;;;;;5033307;28;45301;-72
2022/08/14 05:26:24;;;;;;;;;3.33;2.33;;;;;;;;5049099;27;45426;-72
2022/08/14 05:28:49;;;;;;;;;3.00;3.00;;;;;;;;5098871;27;45256;-72
2022/08/14 05:31:16;;;;;;;;;2.67;2.67;;;;;;;;5098506;27;46382;-72
2022/08/14 05:33:42;;;;;;;;;1.33;1.33;;;;;;;;5098872;27;45575;-72
2022/08/14 05:36:10;;;;;;;;;3.33;3.33;;;;;;;;5088009;27;45492;-72
2022/08/14 05:38:38;;;;;;;;;3.67;3.67;;;;;;;;5083742;27;45478;-73
2022/08/14 05:41:04;;;;;;;;;3.00;3.00;;;;;;;;5078641;27;46241;-72
2022/08/14 05:43:29;;;;;;;;;3.00;3.00;;;;;;;;5083614;27;46381;-72
2022/08/14 05:45:56;;;;;;;;;2.00;2.00;;;;;;;;5094552;27;45314;-72
2022/08/14 05:48:23;;;;;;;;;1.00;1.00;;;;;;;;5094719;27;45303;-72
2022/08/14 05:50:48;;;;;;;;;1.33;1.33;;;;;;;;5098306;27;46198;-72
2022/08/14 05:53:13;;;;;;;;;3.00;3.00;;;;;;;;5098529;27;45328;-72
2022/08/14 05:55:38;;;;;;;;;3.33;3.33;;;;;;;;5080154;27;45502;-72
2022/08/14 05:58:05;;;;;;;;;3.33;3.33;;;;;;;;5095232;27;45358;-72
2022/08/14 06:00:32;;;;;;;;;1.67;1.67;;;;;;;;5091891;27;46294;-72
2022/08/14 06:02:58;;;;;;;;;2.00;2.00;;;;;;;;5088058;27;45398;-72
2022/08/14 06:05:24;;;;;;;;;3.00;3.00;;;;;;;;5095131;27;45415;-72
2022/08/14 06:07:49;;;;;;;;;2.33;2.33;;;;;;;;5087418;27;45359;-72
2022/08/14 06:10:15;;;;;;;;;1.33;1.33;;;;;;;;5091555;27;46082;-72
2022/08/14 06:12:40;;;;;;;;;2.67;2.67;;;;;;;;5097623;27;45389;-72
2022/08/14 06:15:06;;;;;;;;;4.00;4.00;;;;;;;;5090860;27;45370;-72
2022/08/14 06:17:41;;;;;;;;;3.00;3.00;;;;;;;;5093890;27;45390;-73
2022/08/14 06:20:06;;;;;;;;;1.33;1.33;;;;;;;;5086006;27;45314;-73
2022/08/14 06:22:32;;;;;;;;;3.00;2.00;;;;;;;;5083221;27;45386;-72
2022/08/14 06:24:57;;;;;;;;;3.00;3.00;;;;;;;;5092709;27;45466;-73
2022/08/14 06:27:22;;;;;;;;;2.33;2.33;;;;;;;;5097960;27;45422;-72
2022/08/14 06:29:47;;;;;;;;;1.67;1.67;;;;;;;;5097627;27;45951;-72
2022/08/14 06:32:12;;;;;;;;;2.00;2.00;;;;;;;;5097965;27;45539;-72
2022/08/14 06:34:38;;;;;;;;;1.33;1.33;;;;;;;;5096898;27;45429;-73
2022/08/14 06:37:03;;;;;;;;;2.33;2.33;;;;;;;;5084076;27;45443;-72
2022/08/14 06:39:28;;;;;;;;;1.33;1.33;;;;;;;;5080243;27;46586;-73
2022/08/14 06:41:54;;;;;;;;;3.67;3.00;;;;;;;;5072979;27;45439;-72
2022/08/14 06:44:19;;;;;;;;;3.00;3.00;;;;;;;;5072345;28;46634;-72
2022/08/14 06:46:44;;;;;;;;;3.33;3.33;;;;;;;;5068092;27;45422;-74
2022/08/14 06:49:09;;;;;;;;;3.00;3.00;;;;;;;;5072251;28;46241;-72
2022/08/14 06:51:34;;;;;;;;;3.00;3.00;;;;;;;;5071849;27;45625;-74
2022/08/14 06:54:00;;;;;;;;;2.33;2.33;;;;;;;;5072667;27;45465;-74
2022/08/14 06:56:25;;;;;;;;;4.00;4.00;;;;;;;;5069310;27;45541;-74
2022/08/14 06:58:50;;;;;;;;;4.00;4.00;;;;;;;;5072256;28;45573;-74
2022/08/14 07:06:48;;;;;;;;;3.00;3.00;;;;;;;;5053025;28;45462;-73
2022/08/14 07:09:13;;;;;;;;;2.00;2.00;;;;;;;;5049827;28;47146;-73
2022/08/14 07:11:39;;;;;;;;;3.00;3.00;;;;;;;;5058758;28;45392;-73
2022/08/14 07:14:04;;;;;;;;;4.33;4.33;;;;;;;;5050771;28;45510;-73
2022/08/14 07:16:29;;;;;;;;;3.67;3.67;;;;;;;;5058919;28;45607;-73
2022/08/14 07:18:55;;;;;;;;;3.00;3.00;;;;;;;;5074177;28;47418;-72
2022/08/14 07:21:20;;;;;;;;;3.00;3.00;;;;;;;;5069327;28;45451;-74
2022/08/14 07:23:45;;;;;;;;;3.00;3.00;;;;;;;;5059150;28;45406;-73
2022/08/14 07:26:12;;;;;;;;;4.00;4.00;;;;;;;;5069203;28;45344;-73
2022/08/14 07:28:38;;;;;;;;;4.00;3.00;;;;;;;;5073930;28;46159;-73
2022/08/14 07:31:05;;;;;;;;;3.33;3.33;;;;;;;;5074073;28;45418;-74
2022/08/14 07:33:35;;;;;;;;;3.00;3.00;;;;;;;;5074099;28;45343;-73
2022/08/14 07:36:01;;;;;;;;;3.00;3.00;;;;;;;;5064422;28;45473;-73
2022/08/14 07:38:29;;;;;;;;;5.00;4.00;;;;;;;;5071559;28;46270;-77
2022/08/14 07:40:55;;;;;;;;;5.00;5.00;;;;;;;;5052472;28;45487;-75
2022/08/14 07:43:21;;;;;;;;;3.50;3.50;;;;;;;;5069569;27;45435;-74
2022/08/14 07:45:46;;;;;;;;;2.33;2.33;;;;;;;;5107330;27;45346;-74
2022/08/14 07:48:11;;;;;;;;;7.00;5.33;;;;;;;;5116265;27;45410;-74
2022/08/14 07:50:38;;;;;;;;;4.67;3.00;;;;;;;;5117333;27;45395;-75
2022/08/14 07:53:05;;;;;;;;;2.75;2.75;;;;;;;;5117563;27;45476;-74
2022/08/14 07:55:30;;;;;;;;;2.33;2.33;;;;;;;;5117029;27;45393;-74
2022/08/14 07:57:55;;;;;;;;;3.00;3.00;;;;;;;;5116361;27;47253;-74
2022/08/14 08:00:21;;;;;;;;;2.33;2.33;;;;;;;;5106691;27;45469;-75
2022/08/14 08:02:48;;;;;;;;;2.25;2.25;;;;;;;;5085748;27;45455;-75
2022/08/14 08:05:14;;;;;;;;;3.33;3.33;;;;;;;;5090171;27;45526;-76
2022/08/14 08:07:39;;;;;;;;;2.33;2.33;;;;;;;;5096730;27;46058;-75
2022/08/14 08:10:52;;;;;;;;;4.00;3.33;;;;;;;;5090428;27;45400;-75
2022/08/14 08:13:09;;;;;;;;;4.00;4.00;;;;;;;;5062084;27;45344;-74
2022/08/14 08:15:35;;;;;;;;;4.00;4.00;;;;;;;;5094713;27;45476;-75
2022/08/14 08:18:03;;;;;;;;;3.00;3.00;;;;;;;;5085795;27;47006;-74
2022/08/14 08:20:29;;;;;;;;;3.00;3.00;;;;;;;;5096270;27;45265;-74
2022/08/14 08:22:57;;;;;;;;;1.67;1.67;;;;;;;;5090997;27;45276;-74
2022/08/14 08:25:23;;;;;;;;;3.00;3.00;;;;;;;;5096468;27;45399;-74
2022/08/14 08:28:07;;;;;;;;;2.67;2.67;;;;;;;;5096134;27;46453;-74
2022/08/14 08:30:33;;;;;;;;;0.67;0.33;;;;;;;;5094751;27;45343;-74
2022/08/14 08:33:00;;;;;;;;;2.67;2.67;;;;;;;;5096049;27;45406;-75
2022/08/14 08:35:30;;;;;;;;;3.00;3.00;;;;;;;;5084788;27;45376;-74
2022/08/14 08:38:06;;;;;;;;;6.00;3.00;;;;;;;;5089406;27;46105;-74
2022/08/14 08:40:35;;;;;;;;;2.33;2.33;;;;;;;;5071421;27;45359;-74
2022/08/14 08:43:05;;;;;;;;;6.67;4.00;;;;;;;;5096001;27;45406;-75
2022/08/14 08:45:31;;;;;;;;;4.33;3.00;;;;;;;;5089354;27;45357;-76
2022/08/14 08:47:56;;;;;;;;;2.33;1.67;;;;;;;;5088276;27;45313;-75
2022/08/14 08:50:32;;;;;;;;;2.00;2.00;;;;;;;;5095694;27;45262;-74
2022/08/14 08:52:59;;;;;;;;;2.00;2.00;;;;;;;;5095785;27;45327;-75
2022/08/14 08:55:32;;;;;;;;;3.00;2.33;;;;;;;;5083376;27;45382;-74
2022/08/14 08:58:00;;;;;;;;;1.75;1.75;;;;;;;;5095566;27;46396;-75
2022/08/14 09:00:27;;;;;;;;;3.00;3.00;;;;;;;;5102337;27;45393;-74
2022/08/14 09:03:04;;;;;;;;;2.00;2.00;;;;;;;;5106941;27;45336;-75
2022/08/14 09:05:30;;;;;;;;;1.67;1.67;;;;;;;;5107513;27;45492;-75
2022/08/14 09:08:07;;;;;;;;;2.00;2.00;;;;;;;;5106813;27;46598;-75
2022/08/14 09:10:32;;;;;;;;;3.00;3.00;;;;;;;;5097969;27;45376;-74
2022/08/14 09:12:59;;;;;;;;;2.33;2.33;;;;;;;;5114966;27;45338;-74
2022/08/14 09:15:26;;;;;;;;;2.00;2.00;;;;;;;;5104326;27;45533;-74
2022/08/14 09:17:51;;;;;;;;;3.00;3.00;;;;;;;;5115801;27;46093;-74
2022/08/14 09:20:16;;;;;;;;;2.33;2.33;;;;;;;;5116461;27;45417;-74
2022/08/14 09:22:42;;;;;;;;;2.33;2.33;;;;;;;;5119455;27;45467;-74
2022/08/14 09:25:07;;;;;;;;;3.00;3.00;;;;;;;;5114911;27;45291;-73
2022/08/14 09:27:32;;;;;;;;;2.33;2.33;;;;;;;;5107226;27;46376;-74
2022/08/14 09:29:57;;;;;;;;;2.33;2.33;;;;;;;;5117877;27;45383;-74
2022/08/14 09:32:38;;;;;;;;;2.00;2.00;;;;;;;;5119694;27;45363;-74
2022/08/14 09:35:16;;;;;;;;;3.00;3.00;;;;;;;;5115572;27;62605;-74
2022/08/14 09:37:44;;;;;;;;;3.33;3.33;;;;;;;;5110792;27;45318;-75
2022/08/14 09:40:18;;;;;;;;;3.00;3.00;;;;;;;;5114929;27;45453;-74
2022/08/14 09:43:02;;;;;;;;;3.33;3.33;;;;;;;;5119452;27;45368;-74
2022/08/14 09:45:33;;;;;;;;;3.00;3.00;;;;;;;;5109209;27;45368;-74
2022/08/14 09:47:59;;;;;;;;;2.00;2.00;;;;;;;;5116761;27;45311;-74
2022/08/14 09:50:31;;;;;;;;;3.33;3.33;;;;;;;;5118622;27;45494;-74
2022/08/14 09:53:03;;;;;;;;;1.00;1.00;;;;;;;;5107563;27;45365;-74
2022/08/14 09:55:32;;;;;;;;;2.33;2.33;;;;;;;;5102507;27;45444;-75
2022/08/14 09:58:10;;;;;;;;;2.33;2.33;;;;;;;;5102879;27;46052;-74
2022/08/14 10:00:41;;;;;;;;;4.00;4.00;;;;;;;;5116186;27;45396;-74
2022/08/14 10:03:06;;;;;;;;;3.33;2.33;;;;;;;;5117524;27;45394;-74
2022/08/14 10:05:33;;;;;;;;;3.00;3.00;;;;;;;;5112947;27;45377;-74
2022/08/14 10:07:58;;;;;;;;;2.00;2.00;;;;;;;;5113181;27;47037;-74
2022/08/14 10:10:32;;;;;;;;;2.00;2.00;;;;;;;;5112018;27;45420;-74
2022/08/14 10:12:58;;;;;;;;;2.00;2.00;;;;;;;;5110804;27;45627;-74
2022/08/14 10:15:25;;;;;;;;;4.33;4.00;;;;;;;;5112932;27;45393;-75
2022/08/14 10:18:02;;;;;;;;;4.67;3.33;;;;;;;;5118659;27;45432;-75
2022/08/14 10:20:32;;;;;;;;;3.00;3.00;;;;;;;;5112791;27;45327;-73
2022/08/14 10:23:07;;;;;;;;;2.00;2.00;;;;;;;;5115353;27;45518;-74
2022/08/14 10:25:38;;;;;;;;;3.33;3.33;;;;;;;;5111218;27;45493;-74
2022/08/14 10:28:03;;;;;;;;;3.25;3.25;;;;;;;;5118590;27;45428;-75
2022/08/14 10:30:33;;;;;;;;;3.00;2.00;;;;;;;;5108950;27;45300;-74
2022/08/14 10:32:59;;;;;;;;;2.00;2.00;;;;;;;;5113545;27;45378;-74
2022/08/14 10:35:24;;;;;;;;;1.00;1.00;;;;;;;;5113522;27;45330;-74
2022/08/14 10:37:51;;;;;;;;;3.00;3.00;;;;;;;;5097534;27;45546;-75
2022/08/14 10:40:29;;;;;;;;;3.00;3.00;;;;;;;;5104292;27;45470;-74
2022/08/14 10:42:55;;;;;;;;;2.33;2.33;;;;;;;;5118210;27;45316;-74
2022/08/14 10:45:20;;;;;;;;;3.00;3.00;;;;;;;;5114900;27;45500;-74
2022/08/14 10:47:46;;;;;;;;;3.00;3.00;;;;;;;;5118007;27;46164;-74
2022/08/14 10:50:13;;;;;;;;;2.67;2.67;;;;;;;;5103603;27;45326;-74
2022/08/14 10:52:41;;;;;;;;;3.33;3.33;;;;;;;;5118505;27;45570;-74
2022/08/14 10:55:07;;;;;;;;;2.67;2.00;;;;;;;;5104496;27;45446;-74
2022/08/14 10:57:34;;;;;;;;;2.00;2.00;;;;;;;;5105284;27;45392;-74
2022/08/14 11:00:00;;;;;;;;;2.00;2.00;;;;;;;;5112592;27;45353;-75
2022/08/14 11:02:28;;;;;;;;;2.00;2.00;;;;;;;;5097073;27;45452;-75
2022/08/14 11:05:02;;;;;;;;;2.00;2.00;;;;;;;;5094005;27;45471;-74
2022/08/14 11:07:27;;;;;;;;;4.00;2.00;;;;;;;;5095318;27;46213;-74
2022/08/14 11:09:58;;;;;;;;;2.33;2.33;;;;;;;;5091611;27;45742;-75
2022/08/14 11:12:25;;;;;;;;;3.00;3.00;;;;;;;;5092249;27;45509;-74
2022/08/14 11:14:51;;;;;;;;;3.00;3.00;;;;;;;;5086942;27;45354;-74
2022/08/14 11:17:16;;;;;;;;;1.67;1.67;;;;;;;;5096628;27;47349;-74
2022/08/14 11:19:42;;;;;;;;;1.67;1.67;;;;;;;;5097098;27;45308;-75
2022/08/14 11:22:07;;;;;;;;;1.33;1.33;;;;;;;;5097222;27;45297;-74
2022/08/14 11:24:35;;;;;;;;;4.00;1.00;;;;;;;;5082820;27;45582;-75
2022/08/14 11:27:01;;;;;;;;;2.00;2.00;;;;;;;;5097157;27;46257;-75
2022/08/14 11:29:26;;;;;;;;;2.33;2.33;;;;;;;;5096877;27;45371;-74
2022/08/14 11:31:53;;;;;;;;;3.00;3.00;;;;;;;;5096911;27;45323;-74
2022/08/14 11:34:18;;;;;;;;;2.67;2.67;;;;;;;;5097250;27;45341;-74
2022/08/14 11:36:43;;;;;;;;;3.33;2.33;;;;;;;;5085017;27;45403;-74
2022/08/14 11:39:16;;;;;;;;;2.00;2.00;;;;;;;;5088755;27;45413;-74
2022/08/14 11:41:42;;;;;;;;;2.00;2.00;;;;;;;;5096238;27;45442;-74
2022/08/14 11:44:07;;;;;;;;;3.00;3.00;;;;;;;;5093147;27;45461;-74
2022/08/14 11:46:32;;;;;;;;;4.00;2.67;;;;;;;;5095778;27;45615;-74
2022/08/14 11:48:59;;;;;;;;;2.67;2.00;;;;;;;;5096880;27;45377;-74
2022/08/14 11:51:27;;;;;;;;;2.00;2.00;;;;;;;;5083538;27;45368;-74
2022/08/14 11:53:53;;;;;;;;;3.00;3.00;;;;;;;;5078330;27;45479;-74
2022/08/14 11:56:18;;;;;;;;;2.00;2.00;;;;;;;;5087723;27;46149;-75
2022/08/14 11:58:48;;;;;;;;;1.33;1.33;;;;;;;;5093254;27;45383;-74
2022/08/14 12:01:13;;;;;;;;;2.00;2.00;;;;;;;;5090231;27;45289;-75
2022/08/14 12:03:48;;;;;;;;;2.00;2.00;;;;;;;;5096216;27;45398;-75
2022/08/14 12:06:16;;;;;;;;;3.00;3.00;;;;;;;;5095864;27;46529;-75
2022/08/14 12:08:42;;;;;;;;;2.00;2.00;;;;;;;;5096017;27;45473;-74
2022/08/14 12:11:08;;;;;;;;;1.00;1.00;;;;;;;;5101597;27;45462;-74
2022/08/14 12:13:33;;;;;;;;;3.33;3.33;;;;;;;;5096592;27;45300;-74
2022/08/14 12:16:03;;;;;;;;;2.33;2.33;;;;;;;;5095245;27;46252;-75
2022/08/14 12:18:47;;;;;;;;;2.33;1.33;;;;;;;;5096341;27;45422;-74
2022/08/14 12:21:12;;;;;;;;;3.00;3.00;;;;;;;;5096252;27;45453;-74
2022/08/14 12:23:37;;;;;;;;;2.00;2.00;;;;;;;;5077828;27;45525;-74
2022/08/14 12:26:07;;;;;;;;;4.33;2.00;;;;;;;;5095937;27;47236;-76
2022/08/14 12:28:33;;;;;;;;;2.00;2.00;;;;;;;;5096219;27;45266;-74
2022/08/14 12:30:59;;;;;;;;;2.00;2.00;;;;;;;;5095400;27;45540;-75
2022/08/14 12:33:26;;;;;;;;;2.00;2.00;;;;;;;;5096035;27;45448;-74
2022/08/14 12:35:52;;;;;;;;;3.33;2.33;;;;;;;;5095841;27;46111;-74
2022/08/14 12:38:17;;;;;;;;;4.33;2.33;;;;;;;;5095918;27;45441;-74
2022/08/14 12:40:46;;;;;;;;;2.00;2.00;;;;;;;;5096040;27;45340;-75
2022/08/14 12:43:11;;;;;;;;;2.00;2.00;;;;;;;;5095572;27;45378;-74
2022/08/14 12:45:37;;;;;;;;;2.67;2.67;;;;;;;;5095294;27;45406;-74
2022/08/14 12:48:03;;;;;;;;;2.67;2.67;;;;;;;;5096134;27;45340;-74
2022/08/14 12:50:41;;;;;;;;;3.00;3.00;;;;;;;;5095884;27;45442;-74
2022/08/14 12:53:07;;;;;;;;;2.00;1.33;;;;;;;;5096008;27;45364;-74
2022/08/14 12:55:34;;;;;;;;;1.67;1.67;;;;;;;;5097559;27;46196;-74
2022/08/14 12:58:02;;;;;;;;;2.67;2.67;;;;;;;;5099427;27;45270;-74
2022/08/14 13:00:27;;;;;;;;;2.00;2.00;;;;;;;;5093633;27;45388;-75
2022/08/14 13:02:53;;;;;;;;;2.00;2.00;;;;;;;;5099312;27;45426;-74
2022/08/14 13:05:24;;;;;;;;;2.67;2.67;;;;;;;;5085759;27;45920;-74
2022/08/14 13:07:50;;;;;;;;;2.00;2.00;;;;;;;;5099422;27;45424;-75
2022/08/14 13:10:16;;;;;;;;;2.67;2.67;;;;;;;;5090150;27;45315;-75
2022/08/14 13:12:41;;;;;;;;;3.33;2.00;;;;;;;;5099113;27;45403;-75
2022/08/14 13:15:08;;;;;;;;;2.00;2.00;;;;;;;;5098109;27;46098;-75
2022/08/14 13:17:38;;;;;;;;;3.67;2.33;;;;;;;;5096050;27;45399;-74
2022/08/14 13:20:04;;;;;;;;;1.00;1.00;;;;;;;;5085611;27;45377;-75
2022/08/14 13:22:29;;;;;;;;;3.00;3.00;;;;;;;;5098910;27;45492;-74
2022/08/14 13:24:54;;;;;;;;;2.67;2.67;;;;;;;;5098891;27;45338;-74
2022/08/14 13:27:23;;;;;;;;;2.00;2.00;;;;;;;;5098794;27;45407;-73
2022/08/14 13:29:55;;;;;;;;;3.67;3.67;;;;;;;;5084672;27;45524;-74
2022/08/14 13:32:23;;;;;;;;;3.00;3.00;;;;;;;;5099285;27;45408;-75
2022/08/14 13:34:49;;;;;;;;;4.00;2.67;;;;;;;;5094327;27;47070;-74
2022/08/14 13:37:15;;;;;;;;;2.00;2.00;;;;;;;;5087079;27;45407;-76
2022/08/14 13:39:45;;;;;;;;;3.00;2.33;;;;;;;;5098003;27;45615;-74
2022/08/14 13:42:13;;;;;;;;;3.00;3.00;;;;;;;;5085967;27;45345;-76
2022/08/14 13:44:39;;;;;;;;;1.00;1.00;;;;;;;;5090531;27;46069;-74
2022/08/14 13:47:05;;;;;;;;;2.67;2.67;;;;;;;;5097838;27;45357;-74
2022/08/14 13:49:31;;;;;;;;;2.00;2.00;;;;;;;;5095603;27;45308;-75
2022/08/14 13:51:57;;;;;;;;;1.00;1.00;;;;;;;;5085204;27;45307;-74
2022/08/14 13:54:24;;;;;;;;;3.00;3.00;;;;;;;;5091219;27;47042;-74
2022/08/14 13:56:50;;;;;;;;;2.00;2.00;;;;;;;;5093786;27;45438;-73
2022/08/14 13:59:15;;;;;;;;;2.33;2.00;;;;;;;;5098228;27;45391;-75
2022/08/14 14:01:44;;;;;;;;;2.33;1.67;;;;;;;;5097672;27;45518;-75
2022/08/14 14:04:16;;;;;;;;;3.00;3.00;;;;;;;;5097795;27;45410;-74
2022/08/14 14:06:45;;;;;;;;;2.00;2.00;;;;;;;;5097583;27;45356;-75
2022/08/14 14:09:14;;;;;;;;;3.00;3.00;;;;;;;;5098485;27;45368;-75
2022/08/14 14:11:39;;;;;;;;;1.33;1.33;;;;;;;;5103314;27;45480;-74
2022/08/14 14:14:05;;;;;;;;;2.67;2.67;;;;;;;;5098163;27;46281;-74
2022/08/14 14:16:31;;;;;;;;;1.67;1.33;;;;;;;;5092466;27;45330;-75
2022/08/14 14:19:01;;;;;;;;;3.33;2.00;;;;;;;;5096692;27;45217;-74
2022/08/14 14:21:27;;;;;;;;;2.00;2.00;;;;;;;;5099067;27;45445;-74
2022/08/14 14:23:52;;;;;;;;;2.00;2.00;;;;;;;;5107836;27;46033;-75
2022/08/14 14:26:19;;;;;;;;;2.33;2.33;;;;;;;;5097331;27;45498;-75
2022/08/14 14:28:49;;;;;;;;;2.33;2.33;;;;;;;;5098279;27;45454;-75
2022/08/14 14:31:20;;;;;;;;;3.00;3.00;;;;;;;;5097908;27;45324;-75
2022/08/14 14:33:47;;;;;;;;;0.67;0.67;;;;;;;;5097799;27;46913;-74
2022/08/14 14:36:16;;;;;;;;;2.67;1.33;;;;;;;;5097685;27;45284;-74
2022/08/14 14:38:43;;;;;;;;;1.33;1.33;;;;;;;;5083901;27;45425;-75
2022/08/14 14:41:08;;;;;;;;;3.00;3.00;;;;;;;;5097055;27;45507;-74
2022/08/14 14:43:34;;;;;;;;;2.00;2.00;;;;;;;;5110312;27;45421;-74
2022/08/14 14:45:59;;;;;;;;;2.00;2.00;;;;;;;;5097462;27;45490;-75
2022/08/14 14:48:28;;;;;;;;;3.33;2.33;;;;;;;;5097675;27;45341;-75
2022/08/14 14:50:55;;;;;;;;;2.33;2.33;;;;;;;;5097653;27;45418;-75
2022/08/14 14:53:21;;;;;;;;;2.00;2.00;;;;;;;;5097279;27;46338;-75
2022/08/14 14:55:47;;;;;;;;;3.67;3.67;;;;;;;;5097155;27;45640;-75
2022/08/14 14:58:15;;;;;;;;;1.33;1.33;;;;;;;;5097845;27;45296;-75